TimeCEST,TemperatureF,Dew PointF,Humidity,Sea Level PressureIn,VisibilityMPH,Wind Direction,Wind SpeedMPH,Gust SpeedMPH,PrecipitationIn,Events,Conditions,WindDirDegrees,DateUTC
5:00 AM,66.2,60.8,83,30.04,-9999.0,SE,8.1,-,N/A,,Clear,140,2012-10-08 03:00:00
5:30 AM,66.2,60.8,83,30.04,-9999.0,Variable,1.2,-,N/A,,Clear,0,2012-10-08 03:30:00
6:00 AM,66.2,60.8,83,30.01,-9999.0,Variable,2.3,-,N/A,,Clear,0,2012-10-08 04:00:00
6:30 AM,64.4,60.8,88,30.01,-9999.0,SE,6.9,-,N/A,,Clear,130,2012-10-08 04:30:00
7:00 AM,68.0,60.8,78,30.01,-9999.0,Variable,2.3,-,N/A,,Clear,0,2012-10-08 05:00:00
7:30 AM,68.0,60.8,78,30.01,-9999.0,Variable,2.3,-,N/A,,Clear,0,2012-10-08 05:30:00
8:00 AM,68.0,60.8,78,30.01,-9999.0,Calm,Calm,-,N/A,,Clear,0,2012-10-08 06:00:00
8:30 AM,69.8,60.8,73,30.01,-9999.0,Variable,2.3,-,N/A,,Clear,0,2012-10-08 06:30:00
9:00 AM,69.8,60.8,73,30.01,-9999.0,Calm,Calm,-,N/A,,Clear,0,2012-10-08 07:00:00
9:30 AM,71.6,62.6,73,30.01,-9999.0,Variable,2.3,-,N/A,,Clear,0,2012-10-08 07:30:00
10:00 AM,75.2,60.8,61,30.01,-9999.0,NNE,3.5,-,N/A,,Clear,30,2012-10-08 08:00:00
10:30 AM,75.2,60.8,61,30.04,-9999.0,Calm,Calm,-,N/A,,Clear,0,2012-10-08 08:30:00
11:00 AM,78.8,60.8,54,30.04,-9999.0,Variable,1.2,-,N/A,,Clear,0,2012-10-08 09:00:00
11:30 AM,82.4,60.8,48,30.01,-9999.0,Variable,1.2,-,N/A,,Clear,0,2012-10-08 09:30:00
12:00 PM,84.2,60.8,45,30.01,-9999.0,Variable,2.3,-,N/A,,Clear,0,2012-10-08 10:00:00
12:30 PM,86.0,59.0,40,30.01,-9999.0,Variable,2.3,-,N/A,,Clear,0,2012-10-08 10:30:00
1:00 PM,87.8,59.0,38,30.01,-9999.0,Variable,4.6,19.6,N/A,,Clear,0,2012-10-08 11:00:00
1:30 PM,87.8,59.0,38,30.01,-9999.0,WSW,6.9,-,N/A,,Clear,240,2012-10-08 11:30:00
2:00 PM,86.0,62.6,45,30.01,-9999.0,West,11.5,-,N/A,,Clear,280,2012-10-08 12:00:00
2:30 PM,82.4,66.2,58,30.04,-9999.0,NW,15.0,-,N/A,,Clear,310,2012-10-08 12:30:00
3:00 PM,78.8,66.2,65,30.04,-9999.0,NW,19.6,35.7,N/A,,Clear,310,2012-10-08 13:00:00
3:30 PM,73.4,66.2,78,30.06,6.2,NW,20.7,-,N/A,,Partly Cloudy,310,2012-10-08 13:30:00
4:00 PM,73.4,64.4,73,30.06,6.2,NW,13.8,-,N/A,,Partly Cloudy,310,2012-10-08 14:00:00
4:30 PM,73.4,64.4,73,30.06,6.2,NNW,12.7,-,N/A,,Partly Cloudy,330,2012-10-08 14:30:00
5:00 PM,73.4,64.4,73,30.06,6.2,NW,4.6,-,N/A,,Partly Cloudy,310,2012-10-08 15:00:00
5:30 PM,75.2,64.4,69,30.06,6.2,NW,3.5,-,N/A,,Partly Cloudy,310,2012-10-08 15:30:00
6:00 PM,75.2,64.4,69,30.06,6.2,NNW,8.1,-,N/A,,Partly Cloudy,330,2012-10-08 16:00:00
6:30 PM,73.4,64.4,73,30.09,6.2,NW,9.2,-,N/A,,Partly Cloudy,320,2012-10-08 16:30:00
7:00 PM,73.4,62.6,69,30.09,6.2,NNW,4.6,-,N/A,,Scattered Clouds,330,2012-10-08 17:00:00
7:30 PM,71.6,62.6,73,30.09,6.2,North,3.5,-,N/A,,Partly Cloudy,350,2012-10-08 17:30:00
8:00 PM,71.6,62.6,73,30.09,6.2,Variable,2.3,-,N/A,,Partly Cloudy,0,2012-10-08 18:00:00
8:30 PM,71.6,62.6,73,30.12,6.2,Variable,1.2,-,N/A,,Partly Cloudy,0,2012-10-08 18:30:00
9:00 PM,69.8,62.6,78,30.12,6.2,Variable,2.3,-,N/A,,Scattered Clouds,0,2012-10-08 19:00:00
9:30 PM,69.8,62.6,78,30.12,6.2,Variable,1.2,-,N/A,,Scattered Clouds,0,2012-10-08 19:30:00
10:00 PM,69.8,62.6,78,30.12,6.2,Variable,2.3,-,N/A,,Scattered Clouds,0,2012-10-08 20:00:00
10:30 PM,69.8,62.6,78,30.12,6.2,Variable,2.3,-,N/A,,Scattered Clouds,0,2012-10-08 20:30:00
11:00 PM,69.8,62.6,78,30.12,6.2,Variable,2.3,-,N/A,,Scattered Clouds,0,2012-10-08 21:00:00
11:30 PM,69.8,62.6,78,30.12,6.2,Variable,1.2,-,N/A,,Scattered Clouds,0,2012-10-08 21:30:00